Time;durP1;ratioP1;P1;durP2;ratioP2;P2;SDS_P1;SDS_P2;PMS_P1;PMS_P2;Temp;Humidity;BMP_temperature;BMP_pressure;BME280_temperature;BME280_humidity;BME280_pressure;Samples;Min_cycle;Max_cycle;Signal;HPM_P1;HPM_P2
2021/07/10 00:00:13;;;;;;;1.52;0.90;;;23.70;57.70;;;;;;5034073;28;20390;-62
2021/07/10 00:02:40;;;;;;;1.33;0.80;;;23.70;57.70;;;;;;5033963;28;20391;-62
2021/07/10 00:05:09;;;;;;;1.58;0.85;;;23.60;57.60;;;;;;5033667;28;20842;-62
2021/07/10 00:07:34;;;;;;;1.20;0.80;;;23.60;57.70;;;;;;5033762;28;20391;-62
2021/07/10 00:10:03;;;;;;;1.47;0.80;;;23.60;57.60;;;;;;5033902;28;20425;-62
2021/07/10 00:12:29;;;;;;;1.50;0.70;;;23.60;57.60;;;;;;5033943;28;20879;-63
2021/07/10 00:14:54;;;;;;;1.15;0.70;;;23.60;57.60;;;;;;5033813;28;20494;-62
2021/07/10 00:17:20;;;;;;;1.40;0.73;;;23.60;57.60;;;;;;5033018;28;20393;-62
2021/07/10 00:19:47;;;;;;;1.40;0.73;;;23.60;57.60;;;;;;5033735;28;20382;-62
2021/07/10 00:22:13;;;;;;;1.30;0.77;;;23.60;57.70;;;;;;5033666;28;20457;-62
2021/07/10 00:24:39;;;;;;;0.90;0.70;;;23.60;57.60;;;;;;5033660;28;20906;-62
2021/07/10 00:27:04;;;;;;;1.90;0.90;;;23.60;57.60;;;;;;5033369;28;20415;-62
2021/07/10 00:29:30;;;;;;;1.05;0.70;;;23.50;57.50;;;;;;5032856;28;20422;-62
2021/07/10 00:31:55;;;;;;;1.63;0.70;;;23.60;57.70;;;;;;5033457;28;20474;-62
2021/07/10 00:34:21;;;;;;;1.15;0.70;;;23.60;57.70;;;;;;5033404;28;20759;-63
2021/07/10 00:36:47;;;;;;;2.00;0.80;;;23.60;57.60;;;;;;5033451;28;20386;-62
2021/07/10 00:39:12;;;;;;;1.70;0.80;;;23.50;57.60;;;;;;5032884;28;20398;-62
2021/07/10 00:41:38;;;;;;;1.65;0.60;;;23.50;57.60;;;;;;5033308;28;20387;-62
2021/07/10 00:44:04;;;;;;;1.17;0.80;;;23.50;57.60;;;;;;5031950;28;20448;-62
2021/07/10 00:46:29;;;;;;;1.60;0.70;;;23.50;57.50;;;;;;5031950;28;20481;-62
2021/07/10 00:48:55;;;;;;;1.00;0.70;;;23.50;57.50;;;;;;5032949;28;20426;-62
2021/07/10 00:51:21;;;;;;;1.10;0.70;;;23.50;57.60;;;;;;5032580;28;20391;-63
2021/07/10 00:53:50;;;;;;;1.03;0.53;;;23.50;57.50;;;;;;5033135;28;20447;-62
2021/07/10 00:56:16;;;;;;;1.23;0.60;;;23.50;57.50;;;;;;5033007;28;20391;-62
2021/07/10 00:58:42;;;;;;;2.20;0.80;;;23.50;57.50;;;;;;5031710;28;20402;-62
2021/07/10 01:01:08;;;;;;;1.30;0.70;;;23.50;57.50;;;;;;5032592;28;20395;-62
2021/07/10 01:03:37;;;;;;;1.20;0.80;;;23.50;57.50;;;;;;5032687;28;20457;-62
2021/07/10 01:06:03;;;;;;;2.08;0.82;;;23.50;57.60;;;;;;5032782;28;20383;-62
2021/07/10 01:08:30;;;;;;;1.40;0.70;;;23.50;57.50;;;;;;5032770;28;20383;-62
2021/07/10 01:10:58;;;;;;;1.00;0.60;;;23.50;57.50;;;;;;5032783;28;20410;-63
2021/07/10 01:13:25;;;;;;;1.30;0.77;;;23.50;57.70;;;;;;5032198;28;20379;-62
2021/07/10 01:15:51;;;;;;;1.00;0.70;;;23.40;57.70;;;;;;5031364;28;20910;-62
2021/07/10 01:18:16;;;;;;;1.20;0.60;;;23.50;57.70;;;;;;5032596;28;20387;-62
2021/07/10 01:20:49;;;;;;;0.90;0.70;;;23.50;57.60;;;;;;5031346;28;20495;-62
2021/07/10 01:23:16;;;;;;;1.27;0.73;;;23.50;57.60;;;;;;5032070;28;20604;-62
2021/07/10 01:25:43;;;;;;;1.00;0.70;;;23.50;58.30;;;;;;5032490;28;20388;-62
2021/07/10 01:28:08;;;;;;;2.67;0.90;;;23.40;57.50;;;;;;5032459;28;20472;-62
2021/07/10 01:30:36;;;;;;;1.98;0.90;;;23.40;57.50;;;;;;5032281;28;20423;-62
2021/07/10 01:33:03;;;;;;;0.95;0.55;;;23.40;57.50;;;;;;5032503;28;20391;-62
2021/07/10 01:35:29;;;;;;;1.50;0.80;;;23.40;57.50;;;;;;5031877;28;20395;-62
2021/07/10 01:37:55;;;;;;;1.03;0.70;;;23.40;57.50;;;;;;5032281;28;20574;-62
2021/07/10 01:40:23;;;;;;;0.98;0.77;;;23.40;57.70;;;;;;5031913;28;20399;-62
2021/07/10 01:42:49;;;;;;;1.05;0.70;;;23.40;57.60;;;;;;5031497;28;20387;-62
2021/07/10 01:45:20;;;;;;;1.10;0.70;;;23.40;57.50;;;;;;5031888;28;20427;-62
2021/07/10 01:47:47;;;;;;;1.85;0.82;;;23.40;57.50;;;;;;5031999;28;20755;-62
2021/07/10 01:50:13;;;;;;;1.55;0.90;;;23.40;57.50;;;;;;5029932;28;20406;-62
2021/07/10 01:52:41;;;;;;;1.20;0.80;;;23.40;57.50;;;;;;5031859;28;20871;-62
2021/07/10 01:55:09;;;;;;;0.93;0.70;;;23.40;57.50;;;;;;5031856;28;20431;-62
2021/07/10 01:57:35;;;;;;;1.33;0.88;;;23.40;57.60;;;;;;5031957;28;20391;-62
2021/07/10 02:00:12;;;;;;;0.90;0.55;;;23.40;57.50;;;;;;5031840;28;20418;-63
2021/07/10 02:02:39;;;;;;;1.00;0.70;;;23.40;57.50;;;;;;5031857;28;20798;-62
2021/07/10 02:05:06;;;;;;;1.23;0.85;;;23.40;57.40;;;;;;5031748;28;20395;-64
2021/07/10 02:07:32;;;;;;;1.45;0.80;;;23.40;57.30;;;;;;5031327;28;20406;-62
2021/07/10 02:09:57;;;;;;;1.00;0.70;;;23.30;57.40;;;;;;5031621;28;20411;-62
2021/07/10 02:12:23;;;;;;;1.00;0.70;;;23.30;57.30;;;;;;5031726;28;20387;-62
2021/07/10 02:14:49;;;;;;;1.83;0.77;;;23.30;57.40;;;;;;5031635;28;20445;-62
2021/07/10 02:17:14;;;;;;;1.10;0.70;;;23.30;57.30;;;;;;5031421;28;20387;-62
2021/07/10 02:19:40;;;;;;;1.30;0.75;;;23.30;57.40;;;;;;5029883;28;20398;-62
2021/07/10 02:22:07;;;;;;;0.90;0.67;;;23.30;57.30;;;;;;5031511;28;20415;-62
2021/07/10 02:24:33;;;;;;;1.48;0.75;;;23.30;57.40;;;;;;5031843;28;20393;-62
2021/07/10 02:26:59;;;;;;;2.00;0.90;;;23.30;57.30;;;;;;5031521;28;20387;-62
2021/07/10 02:29:24;;;;;;;0.95;0.70;;;23.30;57.30;;;;;;5031037;28;20415;-63
2021/07/10 02:31:50;;;;;;;1.50;0.80;;;23.30;57.40;;;;;;5031569;28;20950;-62
2021/07/10 02:34:16;;;;;;;0.95;0.60;;;23.30;57.50;;;;;;5031437;28;20440;-61
2021/07/10 02:36:41;;;;;;;0.90;0.60;;;23.30;57.30;;;;;;5031468;28;20406;-62
2021/07/10 02:39:07;;;;;;;1.00;0.70;;;23.30;57.50;;;;;;5031399;28;20467;-62
2021/07/10 02:41:33;;;;;;;1.30;0.60;;;23.30;57.40;;;;;;5030962;28;20387;-62
2021/07/10 02:43:59;;;;;;;1.02;0.80;;;23.30;57.40;;;;;;5031449;28;20395;-62
2021/07/10 02:46:24;;;;;;;1.08;0.70;;;23.30;57.40;;;;;;5031294;28;20391;-63
2021/07/10 02:48:50;;;;;;;1.27;0.70;;;23.30;57.40;;;;;;5031385;28;20965;-62
2021/07/10 02:51:16;;;;;;;1.30;0.80;;;23.30;57.40;;;;;;5029787;28;20490;-62
2021/07/10 02:53:42;;;;;;;1.70;0.70;;;23.30;57.50;;;;;;5032954;28;20453;-62
2021/07/10 02:56:08;;;;;;;1.33;0.70;;;23.30;57.40;;;;;;5035246;28;20386;-62
2021/07/10 02:58:33;;;;;;;0.98;0.70;;;23.20;57.30;;;;;;5035284;28;20401;-62
2021/07/10 03:00:59;;;;;;;1.30;0.80;;;23.20;57.30;;;;;;5035193;28;20383;-62
2021/07/10 03:03:25;;;;;;;1.37;0.70;;;23.20;57.60;;;;;;5034437;28;20835;-62
2021/07/10 03:05:51;;;;;;;1.23;0.80;;;23.20;57.30;;;;;;5034657;28;20379;-62
2021/07/10 03:08:20;;;;;;;1.20;0.73;;;23.20;57.30;;;;;;5035075;28;20401;-62
2021/07/10 03:10:47;;;;;;;1.15;0.60;;;23.20;57.20;;;;;;5034917;28;20465;-62
2021/07/10 03:13:14;;;;;;;1.17;0.60;;;23.20;57.20;;;;;;5033387;28;20399;-62
2021/07/10 03:15:40;;;;;;;1.45;0.90;;;23.20;57.30;;;;;;5034604;28;21183;-62
2021/07/10 03:18:05;;;;;;;2.00;0.70;;;23.20;57.30;;;;;;5034803;28;20449;-62
2021/07/10 03:20:31;;;;;;;1.03;0.63;;;23.20;57.30;;;;;;5034907;28;20891;-62
2021/07/10 03:22:57;;;;;;;1.10;0.65;;;23.20;57.30;;;;;;5034605;28;20410;-62
2021/07/10 03:25:23;;;;;;;0.90;0.63;;;23.20;57.20;;;;;;5034146;28;20405;-62
2021/07/10 03:27:52;;;;;;;1.00;0.73;;;23.20;57.30;;;;;;5034735;28;20395;-62
2021/07/10 03:30:20;;;;;;;1.27;0.80;;;23.20;57.30;;;;;;5034535;28;20445;-62
2021/07/10 03:32:46;;;;;;;1.10;0.70;;;23.20;57.30;;;;;;5034695;28;20840;-62
2021/07/10 03:35:13;;;;;;;1.35;0.80;;;23.20;57.30;;;;;;5034526;28;20395;-62
2021/07/10 03:37:39;;;;;;;1.50;0.77;;;23.20;57.30;;;;;;5034394;28;20419;-62
2021/07/10 03:40:09;;;;;;;1.20;0.80;;;23.10;57.30;;;;;;5034449;28;20871;-62
2021/07/10 03:42:35;;;;;;;1.20;0.60;;;23.20;57.30;;;;;;5034480;28;20941;-62
2021/07/10 03:45:00;;;;;;;1.10;0.60;;;23.20;57.20;;;;;;5034408;28;20481;-62
2021/07/10 03:47:26;;;;;;;1.30;0.70;;;23.20;57.30;;;;;;5033862;28;20472;-62
2021/07/10 03:49:53;;;;;;;1.50;0.80;;;23.20;57.50;;;;;;5034343;28;20419;-62
2021/07/10 03:52:18;;;;;;;0.95;0.70;;;23.20;57.20;;;;;;5034276;28;20560;-62
2021/07/10 03:54:46;;;;;;;1.57;0.70;;;23.20;57.30;;;;;;5034313;28;20922;-62
2021/07/10 03:57:11;;;;;;;1.38;0.80;;;23.10;57.10;;;;;;5034151;28;20394;-62
2021/07/10 03:59:37;;;;;;;1.08;0.80;;;23.10;57.20;;;;;;5033681;28;20395;-62
2021/07/10 04:02:03;;;;;;;1.20;0.70;;;23.10;57.10;;;;;;5034117;28;20399;-62
2021/07/10 04:04:28;;;;;;;1.02;0.60;;;23.20;57.30;;;;;;5033239;28;20395;-62
2021/07/10 04:06:56;;;;;;;1.30;0.70;;;23.10;57.10;;;;;;5033923;28;20405;-62
2021/07/10 04:09:22;;;;;;;1.02;0.65;;;23.10;57.40;;;;;;5033878;28;20458;-62
2021/07/10 04:11:47;;;;;;;1.20;0.80;;;23.10;57.00;;;;;;5033927;28;20441;-62
2021/07/10 04:14:13;;;;;;;1.23;0.80;;;23.10;57.10;;;;;;5033844;28;20486;-62
2021/07/10 04:16:39;;;;;;;1.20;0.70;;;23.10;57.10;;;;;;5032625;28;20395;-62
2021/07/10 04:19:04;;;;;;;1.50;0.70;;;23.10;57.10;;;;;;5033457;28;20383;-63
2021/07/10 04:21:30;;;;;;;1.20;0.70;;;23.10;57.10;;;;;;5032526;28;20403;-62
2021/07/10 04:23:56;;;;;;;1.08;0.70;;;23.10;57.10;;;;;;5033502;28;20406;-62
2021/07/10 04:26:21;;;;;;;1.40;0.80;;;23.10;57.00;;;;;;5033634;28;20426;-62
2021/07/10 04:28:47;;;;;;;1.63;0.65;;;23.10;56.90;;;;;;5033560;28;20407;-62
2021/07/10 04:31:13;;;;;;;1.10;0.75;;;23.10;57.00;;;;;;5033346;28;20892;-62
2021/07/10 04:33:38;;;;;;;1.40;0.80;;;23.10;57.10;;;;;;5032987;28;20389;-62
2021/07/10 04:36:04;;;;;;;1.03;0.70;;;23.10;57.10;;;;;;5033422;28;20477;-62
2021/07/10 04:38:30;;;;;;;1.02;0.68;;;23.10;57.00;;;;;;5033488;28;20379;-62
2021/07/10 04:40:56;;;;;;;1.13;0.80;;;23.10;57.30;;;;;;5033365;28;20830;-62
2021/07/10 04:43:22;;;;;;;1.00;0.60;;;23.10;57.10;;;;;;5032830;28;20529;-64
2021/07/10 04:45:48;;;;;;;1.17;0.77;;;23.10;57.30;;;;;;5033088;28;20501;-62
2021/07/10 04:48:13;;;;;;;1.03;0.70;;;23.10;57.20;;;;;;5031970;28;20405;-62
2021/07/10 04:50:39;;;;;;;1.00;0.60;;;23.10;57.20;;;;;;5033134;28;20415;-62
2021/07/10 04:53:04;;;;;;;0.93;0.73;;;23.10;57.20;;;;;;5033062;28;20394;-62
2021/07/10 04:55:30;;;;;;;1.40;0.73;;;23.10;57.10;;;;;;5032712;28;20387;-62
2021/07/10 04:57:56;;;;;;;1.40;0.80;;;23.10;57.00;;;;;;5033062;28;20441;-62
2021/07/10 05:00:23;;;;;;;1.33;0.88;;;23.10;57.10;;;;;;5032677;28;20490;-63
2021/07/10 05:02:49;;;;;;;1.40;0.90;;;23.10;57.50;;;;;;5031735;28;20786;-63
2021/07/10 05:05:14;;;;;;;2.30;1.25;;;23.10;57.20;;;;;;5031469;28;20456;-62
2021/07/10 05:07:40;;;;;;;7.07;0.90;;;23.10;56.40;;;;;;5032107;28;20396;-63
2021/07/10 05:10:07;;;;;;;2.10;0.88;;;23.10;56.70;;;;;;5032678;28;20427;-63
2021/07/10 05:12:33;;;;;;;2.80;1.10;;;23.00;56.20;;;;;;5032754;28;20462;-63
2021/07/10 05:14:59;;;;;;;2.05;0.80;;;23.00;57.20;;;;;;5032640;28;20478;-64
2021/07/10 05:17:31;;;;;;;3.07;1.00;;;23.00;56.30;;;;;;5025573;28;21035;-63
2021/07/10 05:19:57;;;;;;;2.67;1.10;;;23.00;56.60;;;;;;5015033;28;20405;-63
2021/07/10 05:22:22;;;;;;;1.90;1.20;;;23.00;56.90;;;;;;5012602;28;20409;-63
2021/07/10 05:24:48;;;;;;;2.87;0.97;;;23.00;56.70;;;;;;5012582;28;20403;-63
2021/07/10 05:27:15;;;;;;;2.30;0.98;;;23.00;56.50;;;;;;5012019;28;20396;-63
2021/07/10 05:29:44;;;;;;;1.75;1.10;;;23.00;56.70;;;;;;5011877;28;20781;-62
2021/07/10 05:32:13;;;;;;;2.78;0.93;;;23.00;56.80;;;;;;5010480;28;20777;-62
2021/07/10 05:34:39;;;;;;;1.63;1.00;;;23.00;56.80;;;;;;5011894;28;20484;-62
2021/07/10 05:37:06;;;;;;;2.13;1.02;;;23.00;56.80;;;;;;5012078;28;20480;-62
2021/07/10 05:39:32;;;;;;;1.48;0.90;;;23.00;56.80;;;;;;5011919;28;20428;-62
2021/07/10 05:41:58;;;;;;;3.08;1.10;;;23.00;56.60;;;;;;5011817;28;20404;-62
2021/07/10 05:44:25;;;;;;;3.00;0.95;;;23.00;56.80;;;;;;5012263;28;20416;-63
2021/07/10 05:46:51;;;;;;;1.42;0.90;;;23.00;56.90;;;;;;5012485;28;20420;-62
2021/07/10 05:49:49;;;;;;;2.05;0.90;;;23.00;57.10;;;;;;5010929;28;20448;-62
2021/07/10 05:52:14;;;;;;;3.05;1.00;;;23.00;57.10;;;;;;5009956;28;20459;-63
2021/07/10 05:54:41;;;;;;;2.57;1.00;;;23.00;57.30;;;;;;5010125;28;20389;-62
2021/07/10 05:57:06;;;;;;;2.30;0.80;;;23.00;57.30;;;;;;5010043;28;20825;-62
2021/07/10 05:59:32;;;;;;;2.47;0.77;;;23.00;57.10;;;;;;5008988;28;20397;-62
2021/07/10 06:01:58;;;;;;;3.60;0.90;;;23.10;57.20;;;;;;5009930;28;20397;-62
2021/07/10 06:04:24;;;;;;;6.50;2.70;;;23.10;57.10;;;;;;5009906;28;20877;-63
2021/07/10 06:06:50;;;;;;;7.68;2.72;;;23.20;58.30;;;;;;5009873;28;20404;-62
2021/07/10 06:09:16;;;;;;;4.30;1.75;;;23.20;57.70;;;;;;4993234;28;20416;-63
2021/07/10 06:11:42;;;;;;;5.25;1.85;;;23.20;57.50;;;;;;5009509;28;20428;-63
2021/07/10 06:14:12;;;;;;;3.60;1.40;;;23.20;57.40;;;;;;5009861;28;21042;-62
2021/07/10 06:16:38;;;;;;;3.65;1.08;;;23.20;57.50;;;;;;5009636;28;20960;-62
2021/07/10 06:19:05;;;;;;;4.40;1.20;;;23.20;57.20;;;;;;5009755;28;20869;-63
2021/07/10 06:21:34;;;;;;;5.00;1.10;;;23.20;57.00;;;;;;5009065;28;20487;-63
2021/07/10 06:24:00;;;;;;;8.25;1.10;;;23.20;57.50;;;;;;5011408;28;20404;-63
2021/07/10 06:26:25;;;;;;;4.47;0.90;;;23.20;56.90;;;;;;5011711;28;20389;-64
2021/07/10 06:28:51;;;;;;;3.38;1.10;;;23.20;57.00;;;;;;5011155;28;20411;-63
2021/07/10 06:31:20;;;;;;;3.42;1.17;;;23.20;56.80;;;;;;5011751;28;20471;-63
2021/07/10 06:33:47;;;;;;;4.63;1.25;;;23.20;56.70;;;;;;5011329;28;20385;-63
2021/07/10 06:36:14;;;;;;;2.60;1.05;;;23.20;56.60;;;;;;5011667;28;20396;-63
2021/07/10 06:38:40;;;;;;;4.30;1.00;;;23.20;56.80;;;;;;5011622;28;20395;-63
2021/07/10 06:41:05;;;;;;;2.42;1.20;;;23.20;56.60;;;;;;5011709;28;20389;-63
2021/07/10 06:43:31;;;;;;;2.20;1.00;;;23.20;56.60;;;;;;5011175;28;20736;-63
2021/07/10 06:45:57;;;;;;;4.30;1.10;;;23.20;56.70;;;;;;5011612;28;20388;-63
2021/07/10 06:48:23;;;;;;;2.97;0.80;;;23.20;56.70;;;;;;5011566;28;20389;-64
2021/07/10 06:50:48;;;;;;;1.48;0.82;;;23.20;56.70;;;;;;5011516;28;20772;-63
2021/07/10 06:53:19;;;;;;;3.50;1.00;;;23.20;56.90;;;;;;5011578;28;20479;-63
2021/07/10 06:55:45;;;;;;;1.48;0.80;;;23.20;56.70;;;;;;5011219;28;20463;-63
2021/07/10 06:58:11;;;;;;;1.63;0.83;;;23.20;56.80;;;;;;5010370;28;20492;-63
2021/07/10 07:00:36;;;;;;;1.48;0.70;;;23.20;56.70;;;;;;5011466;28;20954;-63
2021/07/10 07:03:02;;;;;;;2.22;0.80;;;23.20;56.80;;;;;;5011631;28;20397;-63
2021/07/10 07:05:32;;;;;;;1.80;0.80;;;23.30;56.70;;;;;;5011137;28;20405;-63
2021/07/10 07:07:58;;;;;;;1.40;0.70;;;23.30;56.60;;;;;;5011448;28;20397;-63
2021/07/10 07:10:24;;;;;;;1.10;0.70;;;23.30;56.60;;;;;;5016529;28;20463;-64
2021/07/10 07:12:50;;;;;;;1.00;0.70;;;23.30;56.70;;;;;;5014737;28;20427;-64
2021/07/10 07:15:16;;;;;;;1.30;0.70;;;23.20;56.60;;;;;;5009406;28;20492;-63
2021/07/10 07:17:44;;;;;;;2.35;0.70;;;23.30;56.70;;;;;;5012649;28;20391;-63
2021/07/10 07:20:13;;;;;;;4.82;1.08;;;23.20;56.60;;;;;;5029568;28;20391;-64
2021/07/10 07:22:43;;;;;;;3.00;0.80;;;23.30;57.40;;;;;;5030501;28;20415;-64
2021/07/10 07:25:09;;;;;;;4.13;0.90;;;23.30;57.30;;;;;;5030564;28;20485;-64
2021/07/10 07:27:35;;;;;;;5.65;0.90;;;23.30;56.90;;;;;;5030222;28;20417;-63
2021/07/10 07:30:01;;;;;;;3.83;0.95;;;23.30;57.30;;;;;;5030701;28;20825;-63
2021/07/10 07:32:27;;;;;;;2.40;0.80;;;23.30;57.50;;;;;;5030754;28;20394;-64
2021/07/10 07:34:53;;;;;;;4.07;0.98;;;23.40;58.10;;;;;;5030615;28;20419;-63
2021/07/10 07:37:18;;;;;;;5.68;1.08;;;23.40;57.30;;;;;;5030551;28;20422;-63
2021/07/10 07:39:46;;;;;;;6.40;1.30;;;23.40;58.00;;;;;;5030624;28;20403;-63
2021/07/10 07:42:38;;;;;;;5.32;1.30;;;23.40;57.90;;;;;;5032419;28;20409;-63
2021/07/10 07:45:05;;;;;;;5.00;1.50;;;23.40;58.10;;;;;;5012044;28;20572;-63
2021/07/10 07:47:32;;;;;;;7.75;2.00;;;23.40;58.20;;;;;;5011616;28;20400;-64
2021/07/10 07:49:58;;;;;;;8.82;1.90;;;23.40;59.30;;;;;;5012419;28;20519;-63
2021/07/10 07:52:23;;;;;;;3.92;1.63;;;23.40;59.20;;;;;;5012250;28;20479;-63
2021/07/10 07:54:49;;;;;;;4.17;1.70;;;23.50;60.30;;;;;;5012238;28;20415;-65
2021/07/10 07:57:14;;;;;;;5.03;1.55;;;23.50;59.40;;;;;;5012240;28;20404;-64
2021/07/10 07:59:41;;;;;;;4.10;1.60;;;23.50;59.10;;;;;;5011578;28;20401;-64
2021/07/10 08:02:08;;;;;;;3.30;1.45;;;23.40;59.00;;;;;;5012167;28;20392;-65
2021/07/10 08:04:35;;;;;;;2.33;1.42;;;23.40;58.90;;;;;;5012083;28;20472;-64
2021/07/10 08:07:02;;;;;;;3.30;1.30;;;23.50;58.80;;;;;;5012152;28;20401;-64
2021/07/10 08:09:28;;;;;;;2.63;1.30;;;23.40;58.50;;;;;;5011629;28;20420;-64
2021/07/10 08:11:55;;;;;;;2.67;1.20;;;23.40;58.40;;;;;;5011761;28;20920;-63
2021/07/10 08:14:33;;;;;;;1.88;1.10;;;23.40;58.20;;;;;;5014965;28;20471;-64
2021/07/10 08:20:24;;;;;;;2.20;1.10;;;23.40;57.90;;;;;;5025506;28;20407;-63
2021/07/10 08:22:56;;;;;;;1.70;1.20;;;23.40;57.70;;;;;;5027488;28;20977;-63
2021/07/10 08:25:22;;;;;;;2.97;1.40;;;23.40;57.70;;;;;;5031206;28;20411;-66
2021/07/10 08:27:49;;;;;;;2.55;1.10;;;23.40;57.70;;;;;;5032166;28;21020;-63
2021/07/10 08:30:20;;;;;;;2.90;1.07;;;23.40;57.60;;;;;;5033360;28;20431;-63
2021/07/10 08:32:47;;;;;;;3.05;1.30;;;23.40;57.70;;;;;;5030200;28;20399;-63
2021/07/10 08:35:15;;;;;;;3.85;1.20;;;23.40;57.90;;;;;;5029783;28;20490;-63
2021/07/10 08:37:42;;;;;;;2.33;1.38;;;23.40;57.60;;;;;;5019986;28;20392;-63
2021/07/10 08:40:09;;;;;;;2.30;1.20;;;23.40;57.60;;;;;;5013561;28;20745;-64
2021/07/10 08:42:36;;;;;;;3.73;1.30;;;23.50;58.00;;;;;;5012643;28;20443;-65
2021/07/10 08:45:10;;;;;;;2.08;1.10;;;23.50;57.60;;;;;;5012567;28;20466;-63
2021/07/10 08:47:38;;;;;;;3.63;1.27;;;23.50;58.50;;;;;;5012495;28;20373;-63
2021/07/10 08:50:09;;;;;;;3.83;1.35;;;23.50;58.50;;;;;;5013078;28;20424;-63
2021/07/10 08:52:36;;;;;;;3.95;1.25;;;23.50;58.50;;;;;;5012927;28;20425;-63
2021/07/10 08:55:07;;;;;;;2.40;1.20;;;23.50;58.60;;;;;;5013436;28;20404;-63
2021/07/10 08:57:37;;;;;;;2.55;1.13;;;23.50;58.40;;;;;;5013020;28;20439;-63
2021/07/10 09:00:08;;;;;;;2.08;1.00;;;23.50;58.30;;;;;;5013601;28;20393;-63
2021/07/10 09:02:34;;;;;;;2.40;1.10;;;23.50;58.10;;;;;;5013274;28;20396;-63
2021/07/10 09:05:03;;;;;;;2.15;1.10;;;23.50;58.00;;;;;;5011428;28;20401;-63
2021/07/10 09:07:28;;;;;;;1.77;1.00;;;23.50;58.00;;;;;;5012685;28;20385;-64
2021/07/10 09:09:54;;;;;;;1.60;1.00;;;23.50;58.00;;;;;;5012683;28;20428;-63
2021/07/10 09:12:32;;;;;;;1.50;1.02;;;23.50;57.80;;;;;;5020119;28;20451;-64
2021/07/10 09:15:30;;;;;;;2.10;0.80;;;23.50;57.70;;;;;;5020278;28;20766;-65
2021/07/10 09:17:55;;;;;;;1.75;0.90;;;23.50;58.00;;;;;;5025921;28;20537;-64
2021/07/10 09:20:24;;;;;;;1.27;1.00;;;23.50;58.00;;;;;;5032631;28;20861;-64
2021/07/10 09:22:51;;;;;;;1.50;1.10;;;23.50;58.00;;;;;;5032198;28;20463;-64
2021/07/10 09:25:32;;;;;;;2.15;1.10;;;23.50;57.80;;;;;;5032044;28;20413;-63
2021/07/10 09:27:59;;;;;;;2.40;1.17;;;23.50;57.60;;;;;;5032248;28;20784;-63
2021/07/10 09:30:40;;;;;;;2.00;1.23;;;23.50;57.60;;;;;;5032315;28;20541;-64
2021/07/10 09:33:22;;;;;;;1.80;1.10;;;23.50;57.60;;;;;;5032425;28;20390;-63
2021/07/10 09:35:56;;;;;;;2.20;1.10;;;23.50;57.50;;;;;;5025398;28;20430;-63
2021/07/10 09:38:25;;;;;;;1.65;1.30;;;23.50;57.50;;;;;;5012616;28;20454;-64
2021/07/10 09:41:00;;;;;;;2.00;1.20;;;23.50;57.50;;;;;;5012644;28;20400;-63
2021/07/10 09:43:31;;;;;;;2.22;1.30;;;23.50;57.40;;;;;;5011276;28;20443;-64
2021/07/10 09:45:59;;;;;;;1.50;1.17;;;23.50;57.40;;;;;;5010900;28;20787;-63
2021/07/10 09:48:43;;;;;;;1.55;1.13;;;23.50;57.40;;;;;;5012386;28;20404;-64
2021/07/10 09:51:25;;;;;;;2.80;1.13;;;23.50;57.40;;;;;;5011112;28;20462;-63
2021/07/10 09:54:07;;;;;;;1.35;1.08;;;23.50;57.80;;;;;;5011619;28;20428;-64
2021/07/10 09:56:35;;;;;;;2.30;1.27;;;23.50;58.00;;;;;;5012183;28;20400;-64
2021/07/10 09:59:17;;;;;;;1.92;1.23;;;23.50;57.80;;;;;;5011978;28;20954;-64
2021/07/10 10:01:44;;;;;;;1.77;1.13;;;23.50;57.80;;;;;;5020776;28;20385;-63
2021/07/10 10:04:30;;;;;;;2.20;1.40;;;23.50;57.70;;;;;;5031193;28;20452;-63
2021/07/10 10:06:57;;;;;;;1.85;1.25;;;23.50;57.60;;;;;;5031815;28;20404;-64
2021/07/10 10:09:28;;;;;;;1.80;1.27;;;23.50;57.60;;;;;;5031672;28;20402;-64
2021/07/10 10:12:08;;;;;;;2.13;1.20;;;23.50;57.60;;;;;;5031295;28;20467;-64
2021/07/10 10:14:40;;;;;;;2.80;1.20;;;23.50;57.70;;;;;;5031539;28;20413;-64
2021/07/10 10:17:06;;;;;;;1.67;1.10;;;23.50;57.60;;;;;;5031720;28;20445;-64
2021/07/10 10:19:33;;;;;;;2.10;1.20;;;23.50;57.70;;;;;;5031406;28;20394;-64
2021/07/10 10:22:02;;;;;;;2.00;1.00;;;23.40;57.60;;;;;;5031230;28;20418;-64
2021/07/10 10:24:29;;;;;;;1.92;1.20;;;23.40;57.70;;;;;;5031455;28;20875;-64
2021/07/10 10:26:57;;;;;;;1.88;1.23;;;23.50;57.80;;;;;;5031471;28;20395;-64
2021/07/10 10:29:24;;;;;;;1.80;1.08;;;23.50;57.80;;;;;;5030410;28;20419;-64
2021/07/10 10:31:50;;;;;;;1.50;1.20;;;23.40;57.70;;;;;;5027269;28;20406;-64
2021/07/10 10:34:17;;;;;;;2.10;1.02;;;23.40;57.70;;;;;;5016532;28;20404;-64
2021/07/10 10:36:45;;;;;;;2.90;1.30;;;23.50;57.70;;;;;;5009719;28;20393;-64
2021/07/10 10:39:15;;;;;;;1.75;1.15;;;23.40;57.70;;;;;;5011127;28;20396;-64
2021/07/10 10:41:44;;;;;;;1.73;1.20;;;23.40;57.80;;;;;;5010903;28;20388;-64
2021/07/10 10:44:11;;;;;;;1.60;1.35;;;23.40;57.80;;;;;;5011277;28;20991;-63
2021/07/10 10:46:45;;;;;;;1.85;1.15;;;23.40;57.90;;;;;;5019154;28;20395;-64
2021/07/10 10:49:41;;;;;;;1.50;1.20;;;23.40;57.80;;;;;;5031119;28;20452;-64
2021/07/10 10:52:26;;;;;;;1.60;1.40;;;23.40;57.80;;;;;;5029190;28;20411;-64
2021/07/10 10:54:58;;;;;;;1.60;1.27;;;23.40;57.80;;;;;;5031050;28;20478;-64
2021/07/10 10:57:38;;;;;;;1.50;1.10;;;23.40;57.90;;;;;;5031052;28;20379;-65
2021/07/10 11:00:27;;;;;;;4.05;1.27;;;23.40;58.00;;;;;;5030344;28;20395;-64
2021/07/10 11:02:54;;;;;;;2.37;1.20;;;23.40;57.80;;;;;;5030688;28;20402;-64
2021/07/10 11:05:33;;;;;;;2.40;1.15;;;23.40;57.80;;;;;;5029924;28;20399;-64
2021/07/10 11:08:18;;;;;;;2.00;1.30;;;23.40;57.80;;;;;;5029568;28;20394;-64
2021/07/10 11:10:58;;;;;;;2.00;1.20;;;23.40;57.80;;;;;;5025035;28;20943;-64
2021/07/10 11:13:27;;;;;;;2.60;1.20;;;23.40;57.80;;;;;;5030788;28;20408;-64
2021/07/10 11:16:25;;;;;;;1.80;1.23;;;23.40;57.70;;;;;;5034246;28;20390;-64
2021/07/10 11:18:58;;;;;;;1.45;1.20;;;23.50;57.80;;;;;;5032509;28;20414;-64
2021/07/10 11:21:37;;;;;;;2.23;1.10;;;23.40;57.70;;;;;;5034593;28;20394;-64
2021/07/10 11:26:55;;;;;;;1.60;1.30;;;23.50;57.70;;;;;;5034679;28;20482;-64
2021/07/10 11:29:23;;;;;;;2.28;1.10;;;23.50;57.80;;;;;;5034416;28;20429;-64
2021/07/10 11:31:51;;;;;;;5.57;1.50;;;23.50;58.40;;;;;;5033835;28;20379;-64
2021/07/10 11:34:19;;;;;;;3.45;1.30;;;23.50;58.30;;;;;;5023071;28;20895;-64
2021/07/10 11:36:52;;;;;;;2.70;1.23;;;23.60;58.80;;;;;;5033794;28;20382;-63
2021/07/10 11:39:24;;;;;;;5.07;1.50;;;23.60;58.00;;;;;;5032602;28;20767;-63
2021/07/10 11:41:54;;;;;;;4.35;1.63;;;23.60;58.50;;;;;;5032651;28;20875;-63
2021/07/10 11:44:25;;;;;;;5.93;1.73;;;23.60;58.70;;;;;;5034415;28;20392;-64
2021/07/10 11:46:57;;;;;;;8.30;1.80;;;23.70;59.40;;;;;;5034287;28;20491;-64
2021/07/10 11:49:35;;;;;;;4.65;1.70;;;23.70;59.00;;;;;;5034322;28;20855;-64
2021/07/10 11:52:16;;;;;;;5.70;1.80;;;23.70;58.60;;;;;;5032774;28;20391;-65
2021/07/10 11:54:53;;;;;;;9.88;2.47;;;23.70;58.60;;;;;;5034133;28;20468;-65
2021/07/10 11:57:20;;;;;;;8.30;1.92;;;23.70;59.80;;;;;;5032828;28;20396;-64
2021/07/10 11:59:46;;;;;;;8.50;2.28;;;23.70;59.90;;;;;;5033563;28;20399;-64
2021/07/10 12:02:35;;;;;;;9.48;2.40;;;23.70;59.90;;;;;;5033123;28;20411;-69
2021/07/10 12:05:18;;;;;;;6.70;2.20;;;23.70;59.60;;;;;;5032020;28;20941;-64
2021/07/10 12:07:49;;;;;;;7.75;2.17;;;23.70;59.30;;;;;;5031601;28;20899;-64
2021/07/10 12:10:21;;;;;;;4.27;2.07;;;23.70;59.20;;;;;;5030651;28;20437;-64
2021/07/10 12:12:54;;;;;;;5.15;1.95;;;23.70;58.90;;;;;;5030587;28;20434;-67
2021/07/10 12:15:32;;;;;;;3.35;1.85;;;23.70;58.80;;;;;;5032016;28;20395;-65
2021/07/10 12:18:01;;;;;;;6.63;2.00;;;23.80;59.30;;;;;;5032738;28;20393;-63
2021/07/10 12:20:35;;;;;;;4.20;2.10;;;23.70;58.50;;;;;;5033780;28;20410;-63
2021/07/10 12:23:03;;;;;;;4.28;2.10;;;23.70;58.50;;;;;;5033743;28;20399;-64
2021/07/10 12:25:34;;;;;;;4.28;1.90;;;23.70;58.50;;;;;;5032959;28;20743;-64
2021/07/10 12:28:03;;;;;;;3.13;2.00;;;23.70;58.20;;;;;;5033172;28;20533;-64
2021/07/10 12:30:39;;;;;;;3.53;2.10;;;23.70;58.30;;;;;;5033323;28;20490;-64
2021/07/10 12:33:29;;;;;;;5.60;1.95;;;23.70;58.20;;;;;;5033651;28;20387;-64
2021/07/10 12:36:09;;;;;;;4.00;1.77;;;23.70;58.20;;;;;;5032951;28;20402;-64
2021/07/10 12:38:47;;;;;;;3.37;1.90;;;23.70;58.20;;;;;;5033420;28;20395;-64
2021/07/10 12:41:24;;;;;;;2.28;1.75;;;23.70;58.20;;;;;;5033426;28;20755;-64
2021/07/10 12:43:51;;;;;;;2.45;1.85;;;23.70;58.20;;;;;;5032788;28;20395;-64
2021/07/10 12:46:17;;;;;;;3.28;1.80;;;23.70;58.20;;;;;;5033260;28;20446;-64
2021/07/10 12:48:43;;;;;;;3.25;1.70;;;23.80;58.20;;;;;;5033195;28;20398;-64
2021/07/10 12:51:08;;;;;;;5.47;2.10;;;23.80;58.20;;;;;;5033148;28;20399;-64
2021/07/10 12:53:38;;;;;;;4.18;1.80;;;23.80;59.20;;;;;;5033043;28;20391;-64
2021/07/10 12:56:46;;;;;;;4.90;2.15;;;23.80;58.80;;;;;;5032642;28;20934;-64
2021/07/10 12:59:21;;;;;;;2.28;1.70;;;23.80;58.80;;;;;;5044610;28;20391;-64
2021/07/10 13:01:50;;;;;;;5.80;1.90;;;23.80;58.70;;;;;;5032631;28;20391;-64